createdAt,value
2023-05-24T00:02:14.687Z,9.60
2023-05-24T00:04:50.143Z,9.74
2023-05-24T00:07:22.988Z,9.67
2023-05-24T00:09:55.143Z,9.67
2023-05-24T00:12:28.811Z,9.56
2023-05-24T00:15:01.058Z,9.57
2023-05-24T00:17:35.223Z,9.46
2023-05-24T00:20:14.657Z,9.72
2023-05-24T00:22:47.462Z,9.70
2023-05-24T00:25:19.765Z,9.60
2023-05-24T00:27:52.441Z,9.65
2023-05-24T00:30:24.708Z,9.72
2023-05-24T00:32:57.934Z,9.70
2023-05-24T00:35:32.782Z,9.68
2023-05-24T00:38:06.842Z,9.71
2023-05-24T00:40:39.024Z,9.64
2023-05-24T00:43:11.494Z,9.85
2023-05-24T00:45:43.990Z,9.79
2023-05-24T00:48:17.945Z,9.86
2023-05-24T00:50:52.703Z,9.71
2023-05-24T00:53:25.384Z,9.81
2023-05-24T00:56:00.863Z,9.83
2023-05-24T01:28:04.713Z,9.93
2023-05-24T01:30:39.930Z,9.84
2023-05-24T01:33:45.252Z,9.74
2023-05-24T01:36:20.635Z,9.76
2023-05-24T01:38:57.022Z,9.74
2023-05-24T01:41:41.480Z,9.90
2023-05-24T01:44:24.702Z,9.78
2023-05-24T01:47:08.371Z,9.81
2023-05-24T01:49:47.430Z,9.93
2023-05-24T01:52:23.622Z,9.88
2023-05-24T01:54:58.526Z,9.93
2023-05-24T01:57:32.585Z,9.82
2023-05-24T02:00:10.318Z,9.73
2023-05-24T02:02:43.371Z,9.74
2023-05-24T02:05:15.921Z,9.69
2023-05-24T02:07:48.697Z,9.73
2023-05-24T02:10:21.308Z,9.79
2023-05-24T02:12:54.313Z,9.78
2023-05-24T02:15:30.882Z,9.83
2023-05-24T02:18:04.534Z,9.76
2023-05-24T02:20:37.696Z,9.78
2023-05-24T02:23:10.688Z,9.77
2023-05-24T02:25:43.176Z,9.74
2023-05-24T02:28:16.365Z,9.72
2023-05-24T02:30:51.855Z,9.77
2023-05-24T02:33:26.168Z,9.79
2023-05-24T02:35:58.255Z,9.73
2023-05-24T02:38:32.539Z,9.63
2023-05-24T02:41:04.442Z,9.69
2023-05-24T02:43:36.732Z,9.69
2023-05-24T02:46:11.559Z,9.70
2023-05-24T02:48:44.466Z,9.54
2023-05-24T02:51:16.661Z,9.73
2023-05-24T02:53:49.083Z,9.73
2023-05-24T02:56:22.638Z,9.52
2023-05-24T02:58:57.157Z,9.54
2023-05-24T03:01:31.877Z,9.48
2023-05-24T03:04:04.618Z,9.56
2023-05-24T03:06:36.557Z,9.68
2023-05-24T03:09:09.866Z,9.55
2023-05-24T03:11:41.676Z,9.44
2023-05-24T03:14:14.161Z,9.33
2023-05-24T03:16:48.833Z,9.31
2023-05-24T03:19:21.242Z,9.28
2023-05-24T03:21:53.299Z,9.35
2023-05-24T03:24:26.620Z,9.37
2023-05-24T03:26:58.613Z,9.44
2023-05-24T03:29:31.102Z,9.21
2023-05-24T03:32:05.984Z,9.42
2023-05-24T03:34:38.465Z,9.42
2023-05-24T03:37:10.569Z,9.40
2023-05-24T03:39:43.079Z,9.49
2023-05-24T03:42:15.130Z,9.48
2023-05-24T03:44:47.501Z,9.44
2023-05-24T03:47:22.365Z,9.45
2023-05-24T03:49:54.838Z,9.48
2023-05-24T03:52:26.811Z,9.38
2023-05-24T03:54:59.109Z,9.35
2023-05-24T04:00:31.343Z,9.50
2023-05-24T04:03:07.177Z,9.37
2023-05-24T04:05:39.743Z,9.37
2023-05-24T04:08:12.919Z,9.44
2023-05-24T04:10:45.477Z,9.50
2023-05-24T04:13:17.495Z,9.44
2023-05-24T04:15:50.160Z,9.40
2023-05-24T04:18:25.208Z,9.47
2023-05-24T04:20:57.779Z,9.42
2023-05-24T04:23:29.855Z,9.64
2023-05-24T04:26:02.257Z,9.65
2023-05-24T04:28:35.133Z,9.52
2023-05-24T04:31:11.081Z,9.55
2023-05-24T04:33:45.859Z,9.50
2023-05-24T04:36:18.503Z,9.48
2023-05-24T04:38:50.945Z,9.51
2023-05-24T04:41:24.885Z,9.61
2023-05-24T04:43:56.980Z,9.68
2023-05-24T04:46:29.883Z,9.53
2023-05-24T04:49:06.161Z,9.35
2023-05-24T04:51:39.018Z,9.33
2023-05-24T04:54:12.080Z,9.47
2023-05-24T04:56:44.565Z,9.43
2023-05-24T04:59:16.688Z,9.57
2023-05-24T05:01:49.086Z,9.51
2023-05-24T05:04:23.963Z,9.67
2023-05-24T05:06:56.575Z,9.55
2023-05-24T05:09:28.865Z,9.38
2023-05-24T05:12:01.606Z,9.32
2023-05-24T05:14:33.813Z,9.22
2023-05-24T05:17:06.801Z,9.36
2023-05-24T05:19:41.504Z,9.50
2023-05-24T05:22:14.437Z,9.69
2023-05-24T05:24:46.613Z,9.63
2023-05-24T05:27:19.250Z,9.35
2023-05-24T05:29:51.259Z,9.43
2023-05-24T05:32:23.997Z,9.68
2023-05-24T05:34:58.903Z,9.87
2023-05-24T05:37:31.607Z,9.40
2023-05-24T05:40:05.038Z,9.58
2023-05-24T05:42:37.647Z,9.45
2023-05-24T05:45:11.999Z,9.53
2023-05-24T05:47:45.611Z,9.60
2023-05-24T05:50:20.739Z,9.52
2023-05-24T05:52:53.538Z,9.89
2023-05-24T05:55:26.245Z,9.67
2023-05-24T05:57:59.240Z,9.89
2023-05-24T06:00:32.039Z,10.12
2023-05-24T06:03:05.024Z,10.02
2023-05-24T06:05:40.555Z,10.08
2023-05-24T06:08:14.928Z,9.59
2023-05-24T06:10:47.517Z,9.94
2023-05-24T06:13:20.242Z,9.53
2023-05-24T06:15:53.467Z,9.58
2023-05-24T06:18:28.175Z,9.64
2023-05-24T06:21:02.935Z,9.69
2023-05-24T06:23:35.607Z,10.05
2023-05-24T06:26:11.103Z,10.04
2023-05-24T06:28:45.200Z,10.06
2023-05-24T06:31:17.677Z,10.24
2023-05-24T06:34:02.414Z,10.10
2023-05-24T06:36:41.798Z,10.28
2023-05-24T06:39:16.488Z,10.39
2023-05-24T06:41:51.750Z,10.48
2023-05-24T06:44:30.909Z,10.45
2023-05-24T06:47:02.966Z,10.29
2023-05-24T06:49:35.631Z,10.03
2023-05-24T06:52:11.241Z,10.31
2023-05-24T06:54:44.191Z,10.33
2023-05-24T06:57:16.607Z,10.02
2023-05-24T06:59:49.085Z,9.95
2023-05-24T07:02:24.666Z,10.15
2023-05-24T07:04:57.513Z,10.37
2023-05-24T07:07:32.975Z,10.32
2023-05-24T07:10:05.633Z,10.58
2023-05-24T07:12:37.763Z,10.71
2023-05-24T07:15:13.765Z,10.86
2023-05-24T07:17:48.830Z,11.19
2023-05-24T07:20:22.098Z,11.49
2023-05-24T07:22:57.858Z,10.67
2023-05-24T07:25:30.393Z,10.45
2023-05-24T07:28:03.027Z,10.84
2023-05-24T07:30:37.874Z,10.46
2023-05-24T07:33:11.039Z,10.64
2023-05-24T07:35:55.594Z,10.82
2023-05-24T07:54:30.765Z,11.24
2023-05-24T07:57:41.994Z,10.69
2023-05-24T08:00:18.651Z,10.67
2023-05-24T08:02:59.313Z,11.04
2023-05-24T08:05:34.827Z,11.26
2023-05-24T08:08:08.554Z,11.77
2023-05-24T08:10:42.228Z,11.70
2023-05-24T08:13:16.752Z,11.56
2023-05-24T08:15:51.593Z,11.88
2023-05-24T08:18:44.313Z,11.73
2023-05-24T08:21:27.867Z,11.32
2023-05-24T08:24:07.503Z,11.83
2023-05-24T08:26:47.471Z,12.05
2023-05-24T08:29:20.797Z,11.93
2023-05-24T08:31:55.935Z,11.57
2023-05-24T08:34:37.990Z,11.72
2023-05-24T08:37:23.065Z,11.88
2023-05-24T08:39:57.579Z,11.83
2023-05-24T08:45:34.945Z,11.94
2023-05-24T08:48:09.365Z,11.92
2023-05-24T08:50:47.186Z,11.76
2023-05-24T08:53:24.631Z,11.59
2023-05-24T08:55:59.636Z,11.53
2023-05-24T08:58:43.681Z,11.77
2023-05-24T09:01:18.485Z,11.92
2023-05-24T09:03:56.841Z,11.50
2023-05-24T09:06:37.948Z,11.37
2023-05-24T09:12:53.549Z,11.34
2023-05-24T09:15:32.186Z,11.43
2023-05-24T09:21:16.257Z,11.61
2023-05-24T09:23:54.558Z,11.97
2023-05-24T09:26:35.821Z,11.74
2023-05-24T09:29:18.753Z,11.75
2023-05-24T09:32:20.967Z,11.58
2023-05-24T09:35:07.354Z,12.12
2023-05-24T09:37:44.506Z,12.12
2023-05-24T09:40:28.810Z,12.21
2023-05-24T09:43:13.557Z,12.23
2023-05-24T09:52:22.436Z,12.35
2023-05-24T09:55:00.853Z,12.55
2023-05-24T10:00:42.934Z,12.44
2023-05-24T10:03:16.811Z,12.35
2023-05-24T10:05:53.901Z,12.35
2023-05-24T10:08:29.199Z,12.59
2023-05-24T10:11:09.944Z,12.46
2023-05-24T10:14:07.153Z,12.40
2023-05-24T10:16:42.603Z,12.26
2023-05-24T10:41:33.864Z,13.56
2023-05-24T10:44:38.344Z,13.59
2023-05-24T11:27:54.819Z,13.18
2023-05-24T11:35:18.879Z,13.59
2023-05-24T11:38:12.509Z,13.39
2023-05-24T11:40:49.546Z,13.44
2023-05-24T11:43:28.546Z,13.87
2023-05-24T11:46:10.568Z,14.40
2023-05-24T11:49:00.145Z,14.31
2023-05-24T11:51:42.441Z,14.60
2023-05-24T11:54:18.824Z,15.21
2023-05-24T11:56:59.025Z,15.68
2023-05-24T11:59:38.388Z,15.68
2023-05-24T12:02:13.218Z,15.86
2023-05-24T12:04:47.822Z,16.23
2023-05-24T12:07:43.358Z,15.94
2023-05-24T12:10:24.310Z,15.67
2023-05-24T12:13:10.990Z,15.02
2023-05-24T12:18:39.938Z,14.56
2023-05-24T12:24:35.770Z,14.44
2023-05-24T12:27:12.050Z,14.29
2023-05-24T12:29:47.616Z,14.57
2023-05-24T12:32:25.551Z,14.77
2023-05-24T12:35:00.306Z,14.82
2023-05-24T12:37:45.003Z,14.81
2023-05-24T12:40:24.178Z,15.00
2023-05-24T12:43:01.449Z,14.97
2023-05-24T12:46:08.650Z,14.98
2023-05-24T12:48:48.819Z,14.92
2023-05-24T12:52:08.322Z,15.23
2023-05-24T12:55:56.346Z,15.19
2023-05-24T13:02:52.667Z,14.92
2023-05-24T13:06:56.733Z,15.23
2023-05-24T13:14:57.817Z,15.70
2023-05-24T13:25:52.856Z,14.99
2023-05-24T13:45:38.214Z,14.23
2023-05-24T13:56:19.744Z,14.36
2023-05-24T13:57:10.022Z,14.78
2023-05-24T13:58:34.141Z,14.16
2023-05-24T14:05:21.745Z,15.17
2023-05-24T14:13:16.223Z,14.64
2023-05-24T14:17:19.384Z,15.45
2023-05-24T14:20:54.296Z,15.62
2023-05-24T14:37:05.585Z,15.38
2023-05-24T14:40:17.653Z,15.42
2023-05-24T14:43:01.018Z,15.36
2023-05-24T14:45:38.794Z,15.36
2023-05-24T14:48:22.258Z,15.30
2023-05-24T14:51:55.257Z,15.45
2023-05-24T14:54:34.545Z,15.55
2023-05-24T14:57:47.262Z,15.74
2023-05-24T15:00:28.815Z,15.50
2023-05-24T15:03:34.133Z,15.69
2023-05-24T15:06:26.937Z,15.99
2023-05-24T15:09:44.655Z,15.69
2023-05-24T15:12:40.296Z,15.80
2023-05-24T15:16:08.937Z,15.94
2023-05-24T15:22:31.778Z,15.44
2023-05-24T15:25:22.941Z,15.57
2023-05-24T15:28:57.217Z,15.46
2023-05-24T15:31:35.673Z,15.44
2023-05-24T15:40:35.541Z,15.53
2023-05-24T15:47:12.301Z,15.70
2023-05-24T15:50:59.959Z,15.42
2023-05-24T15:53:38.784Z,15.56
2023-05-24T16:00:14.857Z,15.54
2023-05-24T16:03:13.524Z,15.68
2023-05-24T16:06:36.334Z,15.66
2023-05-24T16:10:00.745Z,15.73
2023-05-24T16:12:46.552Z,15.22
2023-05-24T16:16:27.007Z,15.49
2023-05-24T16:19:46.873Z,15.26
2023-05-24T16:23:08.482Z,15.50
2023-05-24T16:29:28.044Z,15.55
2023-05-24T16:36:17.214Z,15.51
2023-05-24T16:40:13.563Z,15.45
2023-05-24T16:43:47.081Z,15.70
2023-05-24T16:47:04.103Z,15.47
2023-05-24T16:53:45.804Z,15.33
2023-05-24T16:59:54.158Z,15.47
2023-05-24T17:02:50.182Z,15.54
2023-05-24T17:05:54.932Z,15.37
2023-05-24T17:08:44.761Z,15.13
2023-05-24T17:14:57.206Z,15.01
2023-05-24T17:22:37.721Z,15.10
2023-05-24T17:26:17.609Z,14.82
2023-05-24T17:32:31.281Z,14.64
2023-05-24T17:35:08.717Z,14.61
2023-05-24T17:37:46.597Z,14.67
2023-05-24T17:47:26.195Z,14.52
2023-05-24T22:10:33.517Z,11.16
2023-05-24T22:13:08.869Z,11.15
2023-05-24T22:15:42.732Z,11.14
2023-05-24T22:21:33.918Z,11.25
2023-05-24T22:24:18.003Z,11.26
2023-05-24T22:27:01.677Z,11.24
2023-05-24T22:30:33.182Z,11.23
2023-05-24T22:33:09.993Z,11.23
2023-05-24T22:35:43.166Z,11.19
2023-05-24T22:38:28.054Z,11.19
2023-05-24T22:51:23.306Z,10.88
2023-05-24T22:53:59.348Z,10.90
2023-05-24T22:56:33.210Z,10.89
2023-05-24T23:02:50.594Z,10.88
2023-05-24T23:05:42.256Z,10.95
2023-05-24T23:08:15.883Z,10.98
2023-05-24T23:10:48.772Z,10.98
2023-05-24T23:13:21.784Z,10.96
2023-05-24T23:15:54.683Z,10.92
2023-05-24T23:18:28.602Z,10.90
2023-05-24T23:21:03.654Z,10.83
2023-05-24T23:23:37.960Z,10.84
2023-05-24T23:26:10.292Z,10.80
2023-05-24T23:28:42.583Z,10.77
2023-05-24T23:31:14.613Z,10.75
2023-05-24T23:33:47.134Z,10.73
2023-05-24T23:36:21.794Z,10.69
2023-05-24T23:38:53.973Z,10.62
2023-05-24T23:41:26.752Z,10.63
2023-05-24T23:43:59.031Z,10.62
2023-05-24T23:46:33.439Z,10.59
2023-05-24T23:49:06.028Z,10.58
2023-05-24T23:51:40.916Z,10.57
2023-05-24T23:54:15.136Z,10.53
2023-05-24T23:56:47.078Z,10.51
2023-05-24T23:59:20.225Z,10.46
